12°C
Woerden, The Nederlands
Taal:  Nederlands
Updated22/10/2018 08:00 
 

Nearby METAR Reports

EHAM - Amsterdam/Schiph, Netherlands
Distance from station: N 27km
Updated: 22/10/2018 07:55
Gedeeltelijk bewolkt
Gedeeltelijk bewolkt
 Wind van N
Wind: N 13 km/h
Temperatuur: 12°C
Dauwpunt: 10°C
Vochtigheid: 88%
Barometer: 1030 hPa
Clouds: Gedeeltelijk bewolkt
Visibility: 10 km
Cloud details: Few Clouds 366 m
Gedeeltelijk bewolkt 1036 m
2018/10/22 05:55 EHAM 220555Z 35007KT 290V030 9999 FEW012 SCT034 12/10 Q1030 NOSIG
EHRD - Rotterdam Airpor, Netherlands
Distance from station: WZW 30km
Updated: 22/10/2018 07:55
Zwaar bewolkt
Zwaar bewolkt
 Wind van N
Wind: N 13 km/h
Temperatuur: 13°C
Dauwpunt: 11°C
Vochtigheid: 88%
Barometer: 1030 hPa
Clouds: Zwaar bewolkt
Visibility: 10 km
Cloud details: Zwaar bewolkt 671 m
2018/10/22 05:55 EHRD 220555Z AUTO 01007KT 330V040 9999 OVC022 13/11 Q1030 NOSIG
 
EHGR - Gilze-Rijen Rnla, Netherlands
Distance from station: Z 57km
Updated: 22/10/2018 07:55
Zwaar bewolkt
Zwaar bewolkt
 Wind van N
Wind: N 17 km/h
Temperatuur: 13°C
Dauwpunt: 12°C
Vochtigheid: 94%
Barometer: 1029 hPa
Clouds: Zwaar bewolkt
Visibility: 10 km
Cloud details: Zwaar bewolkt 1250 m
2018/10/22 05:55 EHGR 220555Z AUTO 35009KT 260V070 9999 OVC041 13/12 Q1029 REDZ BLU
EHDL - Deelen Rnlafb, Netherlands
Distance from station: O 71km
Updated: 22/10/2018 07:55
Zwaar bewolkt
Zwaar bewolkt
 Wind van N
Wind: N 22 km/h
Temperatuur: 12°C
Dauwpunt: 11°C
Vochtigheid: 94%
Barometer: 1028 hPa
Clouds: Zwaar bewolkt
Visibility: 10 km
Cloud details: Meestal bewolkt 975 m
Zwaar bewolkt 1097 m
2018/10/22 05:55 EHDL 220555Z AUTO 36012KT 320V040 9999 BKN032 OVC036 12/11 Q1028 BLU
 
EHVK - Volkel Rnlafb, Netherlands
Distance from station: ZO 77km
Updated: 22/10/2018 07:57
Zwaar bewolkt
Zwaar bewolkt
 Wind van N
Wind: N 15 km/h
Temperatuur: 12°C
Dauwpunt: 11°C
Vochtigheid: 94%
Barometer: 1028 hPa
Clouds: Zwaar bewolkt
Visibility: 10 km
Cloud details: Few Clouds 244 m
Meestal bewolkt 579 m
Zwaar bewolkt 792 m
2018/10/22 05:57 EHVK 220557Z AUTO 01008KT 330V040 9999 FEW008 BKN019 OVC026 12/11 Q1028 WHT 36007KT 9999 SCT004 BKN006 TEMPO 2000 DZRA SCT002 BKN004
EHWO - Woensdrecht Rnla, Netherlands
Distance from station: ZZW 78km
Updated: 22/10/2018 07:55
Lichte regen, Drizzle, Zwaar bewolkt
Lichte regen, Drizzle, Zwaar bewolkt
 Wind van N
Wind: N 11 km/h
Temperatuur: 13°C
Dauwpunt: 12°C
Vochtigheid: 94%
Barometer: 1029 hPa
Overzicht: Lichte regen, Drizzle
Clouds: Zwaar bewolkt
Visibility: 3 km
Cloud details: Few Clouds 61 m
Meestal bewolkt 91 m
Zwaar bewolkt 152 m
2018/10/22 05:55 EHWO 220555Z AUTO 01006KT 320V070 3200 R07/P3000D -RADZ FEW002 BKN003 OVC005 13/12 Q1029 RERA REDZ YLO 02007KT 9999 BKN012 TEMPO 3500 DZ SCT005 BKN008
 
EHEH - Eindhoven Rnlafb, Netherlands
Distance from station: ZZO 81km
Updated: 22/10/2018 08:02
Mist, Meestal bewolkt
Mist, Meestal bewolkt
 Wind van N
Wind: N 20 km/h
Temperatuur: 13°C
Dauwpunt: 12°C
Vochtigheid: 94%
Barometer: 1028 hPa
Overzicht: Mist
Clouds: Meestal bewolkt
Visibility: 3 km
Cloud details: Few Clouds 152 m
Gedeeltelijk bewolkt 213 m
Meestal bewolkt 244 m
2018/10/22 06:02 EHEH 220602Z AUTO 36011KT 310V040 3300 R03/P3000N BR FEW005 SCT007 BKN008 13/12 Q1028 YLO 36009KT 4500 BR BKN005 BKN007 TEMPO 2000 DZRA SCT00
EHSC - Goeree Le Sea, Netherlands
Distance from station: W 81km
Updated: 22/10/2018 07:55

 Wind van N
Wind: N 43 km/h
Temperatuur: 14°C
Dauwpunt: 7°C
Vochtigheid: 63%
Barometer: 1030 hPa
Visibility: 10 km
2018/10/22 05:55 EHSC 220555Z AUTO 01023KT 9999 ///////// 14/07 Q1030 W16/H20